Terminal Aerodrome Forecast
Issued by NWS

Home | Current Version | Previous Version | Text Only | Print | Product List | Glossary On
Versions: 1 2 3 4 5 6 7 8 9 10 11 12 13 14
000
FTUS44 KMAF 271700 RRA
TAFCNM
TAF
KCNM 271752Z 2718/2818 15008KT P6SM FEW050 SCT300
     FM280100 16013KT P6SM BKN100
     FM280600 16006KT P6SM SCT100 BKN300
     FM281000 VRB04KT 5SM BR BKN008
     FM281500 16008KT P6SM SCT030 BKN250=

USA.gov is the U.S. government's official web portal to all federal, state and local government web resources and services.